RYR56F LEPA-LEMG
Flight info
| Callsign | RYR56F |
|---|---|
| Flight time | 1h 19m |
| Altitude | 35000 |
| Route | BAVER DCT GERVU DCT ALT DCT RESTU DCT TOSGA DCT ROLAS DCT UNTOS |
| Aircraft | B738/M-SDE2E3FGHIRWXY/LB1 |
Departure
| Time | 2026-05-07 18:37 |
|---|---|
| Airport | Palma de Mallorca Airport (LEPA) |
Arrival
| Time | 2026-05-07 19:57 |
|---|---|
| Airport | Málaga-Costa del Sol Airport (LEMG) |
| Time | Latitude | Longitude | Altitude | Speed | Heading |
|---|---|---|---|---|---|
| 2026-05-07 18:02 | 39.55044 | 2.73541 | 34 ft | 0 kts | 164° |
| 2026-05-07 18:22 | 39.55070 | 2.73522 | 33 ft | 4 kts | 121° |
| 2026-05-07 18:22 | 39.55075 | 2.73494 | 34 ft | 4 kts | 78° |
| 2026-05-07 18:23 | 39.55070 | 2.73475 | 33 ft | 0 kts | 58° |
| 2026-05-07 18:29 | 39.55075 | 2.73485 | 35 ft | 5 kts | 58° |
| 2026-05-07 18:30 | 39.55100 | 2.73538 | 35 ft | 8 kts | 58° |
| 2026-05-07 18:30 | 39.55127 | 2.73594 | 35 ft | 7 kts | 58° |
| 2026-05-07 18:30 | 39.55156 | 2.73654 | 35 ft | 9 kts | 57° |
| 2026-05-07 18:30 | 39.55175 | 2.73731 | 35 ft | 10 kts | 119° |
| 2026-05-07 18:31 | 39.55113 | 2.73792 | 35 ft | 12 kts | 147° |
| 2026-05-07 18:31 | 39.55030 | 2.73859 | 35 ft | 16 kts | 150° |
| 2026-05-07 18:31 | 39.54928 | 2.73937 | 35 ft | 17 kts | 149° |
| 2026-05-07 18:31 | 39.54831 | 2.73991 | 35 ft | 13 kts | 183° |
| 2026-05-07 18:32 | 39.54761 | 2.73960 | 35 ft | 10 kts | 160° |
| 2026-05-07 18:32 | 39.54699 | 2.73941 | 34 ft | 10 kts | 232° |
| 2026-05-07 18:32 | 39.54659 | 2.73854 | 35 ft | 13 kts | 239° |
| 2026-05-07 18:32 | 39.54605 | 2.73735 | 35 ft | 18 kts | 238° |
| 2026-05-07 18:33 | 39.54531 | 2.73580 | 35 ft | 22 kts | 238° |
| 2026-05-07 18:33 | 39.54447 | 2.73403 | 35 ft | 24 kts | 238° |
| 2026-05-07 18:33 | 39.54362 | 2.73223 | 35 ft | 23 kts | 239° |
| 2026-05-07 18:33 | 39.54283 | 2.73060 | 33 ft | 13 kts | 238° |
| 2026-05-07 18:34 | 39.54235 | 2.72960 | 34 ft | 13 kts | 238° |
| 2026-05-07 18:34 | 39.54194 | 2.72896 | 35 ft | 7 kts | 195° |
| 2026-05-07 18:34 | 39.54150 | 2.72915 | 34 ft | 7 kts | 143° |
| 2026-05-07 18:34 | 39.54134 | 2.72939 | 35 ft | 0 kts | 122° |
| 2026-05-07 18:36 | 39.54132 | 2.72944 | 35 ft | 2 kts | 119° |
| 2026-05-07 18:36 | 39.54122 | 2.72978 | 35 ft | 6 kts | 106° |
| 2026-05-07 18:36 | 39.54112 | 2.73052 | 35 ft | 10 kts | 97° |
| 2026-05-07 18:36 | 39.54116 | 2.73155 | 36 ft | 13 kts | 63° |
| 2026-05-07 18:37 | 39.54276 | 2.73494 | 33 ft | 82 kts | 58° |
| 2026-05-07 18:37 | 39.54700 | 2.74386 | 51 ft | 146 kts | 58° |
| 2026-05-07 18:37 | 39.55241 | 2.75517 | 767 ft | 148 kts | 57° |
| 2026-05-07 18:37 | 39.55792 | 2.76684 | 1545 ft | 153 kts | 58° |
| 2026-05-07 18:38 | 39.56370 | 2.77919 | 2077 ft | 175 kts | 59° |
| 2026-05-07 18:38 | 39.56981 | 2.79223 | 2388 ft | 197 kts | 59° |
| 2026-05-07 18:38 | 39.57711 | 2.80781 | 2890 ft | 206 kts | 59° |
| 2026-05-07 18:38 | 39.58465 | 2.82389 | 3543 ft | 211 kts | 59° |
| 2026-05-07 18:39 | 39.59234 | 2.84027 | 4234 ft | 215 kts | 59° |
| 2026-05-07 18:39 | 39.60005 | 2.85671 | 5094 ft | 213 kts | 59° |
| 2026-05-07 18:39 | 39.60787 | 2.87338 | 5834 ft | 218 kts | 59° |
| 2026-05-07 18:39 | 39.61577 | 2.89025 | 6577 ft | 222 kts | 59° |
| 2026-05-07 18:40 | 39.62405 | 2.90722 | 7331 ft | 224 kts | 51° |
| 2026-05-07 18:40 | 39.63713 | 2.91762 | 7983 ft | 232 kts | 11° |
| 2026-05-07 18:40 | 39.65314 | 2.91454 | 8656 ft | 242 kts | 332° |
| 2026-05-07 18:40 | 39.66514 | 2.89906 | 9324 ft | 249 kts | 304° |
| 2026-05-07 18:41 | 39.67214 | 2.87837 | 9991 ft | 254 kts | 284° |
| 2026-05-07 18:41 | 39.67591 | 2.85582 | 10581 ft | 260 kts | 281° |
| 2026-05-07 18:41 | 39.67912 | 2.83223 | 11125 ft | 269 kts | 279° |
| 2026-05-07 18:41 | 39.68214 | 2.80793 | 11759 ft | 275 kts | 277° |
| 2026-05-07 18:42 | 39.68446 | 2.78317 | 12522 ft | 276 kts | 274° |
| 2026-05-07 18:42 | 39.68558 | 2.75770 | 12794 ft | 286 kts | 269° |
| 2026-05-07 18:42 | 39.68786 | 2.73240 | 13064 ft | 282 kts | 288° |
| 2026-05-07 18:42 | 39.69817 | 2.71034 | 13165 ft | 297 kts | 310° |
| 2026-05-07 18:43 | 39.70950 | 2.68670 | 13375 ft | 322 kts | 293° |
| 2026-05-07 18:43 | 39.71833 | 2.65895 | 13689 ft | 341 kts | 291° |
| 2026-05-07 18:43 | 39.72747 | 2.62978 | 14067 ft | 356 kts | 291° |
| 2026-05-07 18:43 | 39.73713 | 2.59959 | 14479 ft | 369 kts | 292° |
| 2026-05-07 18:44 | 39.74731 | 2.56835 | 14898 ft | 381 kts | 292° |
| 2026-05-07 18:44 | 39.75788 | 2.53634 | 15452 ft | 389 kts | 292° |
| 2026-05-07 18:44 | 39.76591 | 2.50273 | 16070 ft | 391 kts | 274° |
| 2026-05-07 18:44 | 39.76336 | 2.46795 | 16778 ft | 389 kts | 251° |
| 2026-05-07 18:45 | 39.75204 | 2.43628 | 17487 ft | 387 kts | 236° |
| 2026-05-07 18:45 | 39.73770 | 2.40651 | 18138 ft | 391 kts | 235° |
| 2026-05-07 18:45 | 39.72295 | 2.37665 | 18711 ft | 394 kts | 235° |
| 2026-05-07 18:45 | 39.70808 | 2.34669 | 19347 ft | 395 kts | 235° |
| 2026-05-07 18:46 | 39.69327 | 2.31668 | 20003 ft | 394 kts | 235° |
| 2026-05-07 18:46 | 39.67852 | 2.28660 | 20617 ft | 395 kts | 235° |
| 2026-05-07 18:46 | 39.66381 | 2.25642 | 21197 ft | 397 kts | 235° |
| 2026-05-07 18:46 | 39.64905 | 2.22604 | 21758 ft | 399 kts | 235° |
| 2026-05-07 18:47 | 39.63424 | 2.19550 | 22277 ft | 401 kts | 235° |
| 2026-05-07 18:47 | 39.61934 | 2.16476 | 22776 ft | 404 kts | 235° |
| 2026-05-07 18:47 | 39.60433 | 2.13382 | 23271 ft | 407 kts | 235° |
| 2026-05-07 18:47 | 39.58922 | 2.10270 | 23732 ft | 409 kts | 235° |
| 2026-05-07 18:48 | 39.57404 | 2.07146 | 24145 ft | 411 kts | 235° |
| 2026-05-07 18:48 | 39.55874 | 2.04003 | 24546 ft | 414 kts | 235° |
| 2026-05-07 18:48 | 39.54332 | 2.00839 | 24968 ft | 416 kts | 235° |
| 2026-05-07 18:48 | 39.52802 | 1.97702 | 25378 ft | 418 kts | 235° |
| 2026-05-07 18:49 | 39.51242 | 1.94507 | 25771 ft | 421 kts | 235° |
| 2026-05-07 18:49 | 39.49651 | 1.91250 | 26163 ft | 423 kts | 235° |
| 2026-05-07 18:49 | 39.48075 | 1.88026 | 26543 ft | 426 kts | 235° |
| 2026-05-07 18:49 | 39.46485 | 1.84778 | 26908 ft | 429 kts | 235° |
| 2026-05-07 18:50 | 39.44905 | 1.81553 | 27252 ft | 431 kts | 235° |
| 2026-05-07 18:50 | 39.43292 | 1.78264 | 27599 ft | 434 kts | 235° |
| 2026-05-07 18:50 | 39.41670 | 1.74959 | 27951 ft | 436 kts | 236° |
| 2026-05-07 18:50 | 39.40042 | 1.71646 | 28281 ft | 439 kts | 236° |
| 2026-05-07 18:51 | 39.38399 | 1.68305 | 28596 ft | 442 kts | 236° |
| 2026-05-07 18:51 | 39.36746 | 1.64949 | 28947 ft | 443 kts | 236° |
| 2026-05-07 18:51 | 39.35094 | 1.61597 | 29449 ft | 441 kts | 236° |
| 2026-05-07 18:51 | 39.33452 | 1.58267 | 30022 ft | 438 kts | 236° |
| 2026-05-07 18:52 | 39.31819 | 1.54959 | 30457 ft | 436 kts | 236° |
| 2026-05-07 18:52 | 39.30198 | 1.51679 | 30913 ft | 432 kts | 237° |
| 2026-05-07 18:52 | 39.28656 | 1.48364 | 31413 ft | 429 kts | 239° |
| 2026-05-07 18:52 | 39.27234 | 1.45104 | 31916 ft | 425 kts | 240° |
| 2026-05-07 18:53 | 39.25820 | 1.41779 | 32417 ft | 421 kts | 242° |
| 2026-05-07 18:53 | 39.24426 | 1.38489 | 32911 ft | 417 kts | 242° |
| 2026-05-07 18:53 | 39.23039 | 1.35228 | 33404 ft | 413 kts | 243° |
| 2026-05-07 18:53 | 39.21658 | 1.32006 | 33905 ft | 408 kts | 243° |
| 2026-05-07 18:54 | 39.20285 | 1.28820 | 34319 ft | 405 kts | 243° |
| 2026-05-07 18:54 | 39.18916 | 1.25660 | 34641 ft | 403 kts | 243° |
| 2026-05-07 18:54 | 39.17546 | 1.22507 | 34884 ft | 403 kts | 243° |
| 2026-05-07 18:55 | 39.14774 | 1.16143 | 34927 ft | 409 kts | 243° |
| 2026-05-07 18:55 | 39.11991 | 1.09776 | 34927 ft | 405 kts | 243° |
| 2026-05-07 18:56 | 39.09239 | 1.03498 | 34948 ft | 402 kts | 243° |
| 2026-05-07 18:56 | 39.06493 | 0.97238 | 34951 ft | 402 kts | 244° |
| 2026-05-07 18:57 | 39.03732 | 0.90959 | 34944 ft | 404 kts | 244° |
| 2026-05-07 18:57 | 39.00954 | 0.84651 | 34951 ft | 406 kts | 244° |
| 2026-05-07 18:58 | 38.98155 | 0.78312 | 34944 ft | 409 kts | 244° |
| 2026-05-07 18:58 | 38.95339 | 0.71945 | 34944 ft | 411 kts | 244° |
| 2026-05-07 18:59 | 38.92512 | 0.65567 | 34951 ft | 412 kts | 244° |
| 2026-05-07 18:59 | 38.89676 | 0.59184 | 34943 ft | 411 kts | 244° |
| 2026-05-07 19:00 | 38.86861 | 0.52862 | 34946 ft | 410 kts | 245° |
| 2026-05-07 19:00 | 38.84037 | 0.46532 | 34946 ft | 408 kts | 245° |
| 2026-05-07 19:01 | 38.81227 | 0.40245 | 34945 ft | 405 kts | 245° |
| 2026-05-07 19:01 | 38.78434 | 0.34007 | 34944 ft | 402 kts | 245° |
| 2026-05-07 19:02 | 38.75656 | 0.27815 | 34944 ft | 399 kts | 246° |
| 2026-05-07 19:02 | 38.72892 | 0.21667 | 34942 ft | 397 kts | 246° |
| 2026-05-07 19:03 | 38.70146 | 0.15569 | 34946 ft | 395 kts | 246° |
| 2026-05-07 19:03 | 38.67405 | 0.09494 | 34945 ft | 393 kts | 246° |
| 2026-05-07 19:04 | 38.64671 | 0.03446 | 34955 ft | 392 kts | 246° |
| 2026-05-07 19:04 | 38.61957 | -0.02547 | 34946 ft | 392 kts | 247° |
| 2026-05-07 19:05 | 38.59211 | -0.08600 | 34938 ft | 391 kts | 247° |
| 2026-05-07 19:05 | 38.56501 | -0.14559 | 34942 ft | 390 kts | 247° |
| 2026-05-07 19:06 | 38.53780 | -0.20534 | 34948 ft | 389 kts | 247° |
| 2026-05-07 19:06 | 38.49690 | -0.29493 | 34965 ft | 389 kts | 247° |
| 2026-05-07 19:07 | 38.46965 | -0.35448 | 34959 ft | 389 kts | 247° |
| 2026-05-07 19:07 | 38.44234 | -0.41405 | 34964 ft | 389 kts | 247° |
| 2026-05-07 19:08 | 38.41499 | -0.47359 | 34966 ft | 389 kts | 247° |
| 2026-05-07 19:08 | 38.38760 | -0.53312 | 34961 ft | 389 kts | 247° |
| 2026-05-07 19:09 | 38.36020 | -0.59255 | 34968 ft | 389 kts | 247° |
| 2026-05-07 19:09 | 38.33273 | -0.65202 | 34958 ft | 389 kts | 246° |
| 2026-05-07 19:10 | 38.30523 | -0.71144 | 34962 ft | 389 kts | 246° |
| 2026-05-07 19:10 | 38.27771 | -0.77079 | 34959 ft | 389 kts | 246° |
| 2026-05-07 19:11 | 38.25016 | -0.83010 | 34963 ft | 389 kts | 246° |
| 2026-05-07 19:11 | 38.22261 | -0.88931 | 34968 ft | 389 kts | 246° |
| 2026-05-07 19:12 | 38.19523 | -0.94805 | 34974 ft | 388 kts | 246° |
| 2026-05-07 19:12 | 38.16765 | -1.00710 | 34958 ft | 388 kts | 246° |
| 2026-05-07 19:13 | 38.14008 | -1.06603 | 34948 ft | 388 kts | 246° |
| 2026-05-07 19:13 | 38.11255 | -1.12476 | 34948 ft | 387 kts | 246° |
| 2026-05-07 19:14 | 38.08500 | -1.18343 | 34943 ft | 387 kts | 246° |
| 2026-05-07 19:14 | 38.05745 | -1.24201 | 34937 ft | 386 kts | 245° |
| 2026-05-07 19:15 | 38.02991 | -1.30045 | 34937 ft | 385 kts | 245° |
| 2026-05-07 19:15 | 38.00241 | -1.35871 | 34940 ft | 385 kts | 245° |
| 2026-05-07 19:16 | 37.97492 | -1.41685 | 34945 ft | 384 kts | 245° |
| 2026-05-07 19:16 | 37.94747 | -1.47482 | 34947 ft | 384 kts | 245° |
| 2026-05-07 19:17 | 37.92461 | -1.52301 | 34955 ft | 384 kts | 245° |
| 2026-05-07 19:17 | 37.89483 | -1.59192 | 34963 ft | 380 kts | 250° |
| 2026-05-07 19:18 | 37.87618 | -1.64229 | 34968 ft | 380 kts | 250° |
| 2026-05-07 19:18 | 37.85377 | -1.70299 | 34962 ft | 381 kts | 250° |
| 2026-05-07 19:19 | 37.83120 | -1.76360 | 34971 ft | 381 kts | 250° |
| 2026-05-07 19:19 | 37.80855 | -1.82408 | 34967 ft | 380 kts | 250° |
| 2026-05-07 19:20 | 37.78604 | -1.88397 | 34971 ft | 375 kts | 250° |
| 2026-05-07 19:20 | 37.76365 | -1.94352 | 34757 ft | 377 kts | 250° |
| 2026-05-07 19:21 | 37.75245 | -1.97323 | 34467 ft | 371 kts | 250° |
| 2026-05-07 19:21 | 37.74141 | -2.00246 | 34075 ft | 366 kts | 250° |
| 2026-05-07 19:21 | 37.73051 | -2.03131 | 33586 ft | 362 kts | 250° |
| 2026-05-07 19:21 | 37.71971 | -2.05990 | 33143 ft | 359 kts | 250° |
| 2026-05-07 19:22 | 37.70915 | -2.08783 | 32728 ft | 355 kts | 250° |
| 2026-05-07 19:22 | 37.69855 | -2.11583 | 32300 ft | 352 kts | 250° |
| 2026-05-07 19:22 | 37.68794 | -2.14385 | 31877 ft | 348 kts | 249° |
| 2026-05-07 19:22 | 37.67752 | -2.17135 | 31458 ft | 344 kts | 249° |
| 2026-05-07 19:23 | 37.66739 | -2.19806 | 31071 ft | 341 kts | 249° |
| 2026-05-07 19:23 | 37.65715 | -2.22494 | 30675 ft | 338 kts | 249° |
| 2026-05-07 19:23 | 37.64701 | -2.25163 | 30280 ft | 336 kts | 249° |
| 2026-05-07 19:23 | 37.63693 | -2.27820 | 29857 ft | 335 kts | 249° |
| 2026-05-07 19:24 | 37.62686 | -2.30466 | 29390 ft | 333 kts | 249° |
| 2026-05-07 19:24 | 37.61680 | -2.33110 | 28699 ft | 337 kts | 249° |
| 2026-05-07 19:24 | 37.60658 | -2.35793 | 28237 ft | 343 kts | 248° |
| 2026-05-07 19:24 | 37.59617 | -2.38526 | 27814 ft | 347 kts | 248° |
| 2026-05-07 19:25 | 37.58574 | -2.41257 | 27369 ft | 345 kts | 248° |
| 2026-05-07 19:25 | 37.57536 | -2.43968 | 26955 ft | 342 kts | 248° |
| 2026-05-07 19:25 | 37.56508 | -2.46654 | 26550 ft | 339 kts | 248° |
| 2026-05-07 19:25 | 37.55488 | -2.49316 | 26143 ft | 336 kts | 248° |
| 2026-05-07 19:26 | 37.54477 | -2.51955 | 25754 ft | 333 kts | 248° |
| 2026-05-07 19:26 | 37.53473 | -2.54573 | 25355 ft | 330 kts | 248° |
| 2026-05-07 19:26 | 37.52477 | -2.57172 | 24962 ft | 328 kts | 248° |
| 2026-05-07 19:26 | 37.51504 | -2.59764 | 24605 ft | 325 kts | 251° |
| 2026-05-07 19:27 | 37.50847 | -2.62448 | 24386 ft | 319 kts | 257° |
| 2026-05-07 19:27 | 37.50294 | -2.65191 | 24169 ft | 328 kts | 258° |
| 2026-05-07 19:27 | 37.49736 | -2.67983 | 23952 ft | 327 kts | 258° |
| 2026-05-07 19:27 | 37.49181 | -2.70751 | 23596 ft | 325 kts | 258° |
| 2026-05-07 19:28 | 37.48625 | -2.73511 | 23091 ft | 325 kts | 257° |
| 2026-05-07 19:28 | 37.48065 | -2.76273 | 22548 ft | 326 kts | 257° |
| 2026-05-07 19:28 | 37.47505 | -2.79015 | 22269 ft | 321 kts | 257° |
| 2026-05-07 19:28 | 37.46954 | -2.81707 | 22006 ft | 316 kts | 257° |
| 2026-05-07 19:29 | 37.46402 | -2.84398 | 21755 ft | 320 kts | 257° |
| 2026-05-07 19:29 | 37.45842 | -2.87130 | 21497 ft | 325 kts | 257° |
| 2026-05-07 19:29 | 37.45273 | -2.89891 | 21249 ft | 326 kts | 257° |
| 2026-05-07 19:29 | 37.44706 | -2.92641 | 20993 ft | 323 kts | 257° |
| 2026-05-07 19:30 | 37.44141 | -2.95374 | 20743 ft | 322 kts | 257° |
| 2026-05-07 19:30 | 37.43577 | -2.98095 | 20490 ft | 321 kts | 257° |
| 2026-05-07 19:30 | 37.43015 | -3.00808 | 20244 ft | 320 kts | 257° |
| 2026-05-07 19:30 | 37.42454 | -3.03513 | 20000 ft | 319 kts | 257° |
| 2026-05-07 19:31 | 37.41893 | -3.06213 | 19763 ft | 319 kts | 257° |
| 2026-05-07 19:31 | 37.41332 | -3.08910 | 19530 ft | 318 kts | 257° |
| 2026-05-07 19:31 | 37.40771 | -3.11604 | 19288 ft | 318 kts | 257° |
| 2026-05-07 19:31 | 37.40211 | -3.14289 | 19051 ft | 318 kts | 257° |
| 2026-05-07 19:32 | 37.39649 | -3.16980 | 18824 ft | 318 kts | 257° |
| 2026-05-07 19:32 | 37.39087 | -3.19669 | 18583 ft | 318 kts | 257° |
| 2026-05-07 19:32 | 37.38524 | -3.22357 | 18346 ft | 318 kts | 257° |
| 2026-05-07 19:32 | 37.37962 | -3.25040 | 18098 ft | 317 kts | 257° |
| 2026-05-07 19:33 | 37.37401 | -3.27716 | 17835 ft | 316 kts | 257° |
| 2026-05-07 19:33 | 37.36840 | -3.30386 | 17572 ft | 316 kts | 256° |
| 2026-05-07 19:33 | 37.36280 | -3.33049 | 17305 ft | 315 kts | 256° |
| 2026-05-07 19:33 | 37.35721 | -3.35702 | 17058 ft | 313 kts | 256° |
| 2026-05-07 19:34 | 37.35161 | -3.38357 | 16976 ft | 315 kts | 256° |
| 2026-05-07 19:34 | 37.34602 | -3.41003 | 16959 ft | 312 kts | 256° |
| 2026-05-07 19:34 | 37.34045 | -3.43639 | 16955 ft | 313 kts | 256° |
| 2026-05-07 19:34 | 37.33485 | -3.46285 | 16951 ft | 314 kts | 256° |
| 2026-05-07 19:35 | 37.32932 | -3.48895 | 16948 ft | 313 kts | 256° |
| 2026-05-07 19:35 | 37.32373 | -3.51532 | 16945 ft | 312 kts | 256° |
| 2026-05-07 19:35 | 37.31813 | -3.54172 | 16884 ft | 314 kts | 256° |
| 2026-05-07 19:35 | 37.31250 | -3.56818 | 16760 ft | 314 kts | 256° |
| 2026-05-07 19:36 | 37.30688 | -3.59460 | 16623 ft | 312 kts | 256° |
| 2026-05-07 19:36 | 37.30127 | -3.62090 | 16493 ft | 312 kts | 256° |
| 2026-05-07 19:36 | 37.29567 | -3.64718 | 16373 ft | 311 kts | 255° |
| 2026-05-07 19:36 | 37.29005 | -3.67345 | 16239 ft | 311 kts | 255° |
| 2026-05-07 19:37 | 37.28443 | -3.69972 | 16114 ft | 311 kts | 255° |
| 2026-05-07 19:37 | 37.27882 | -3.72591 | 15989 ft | 311 kts | 255° |
| 2026-05-07 19:37 | 37.27320 | -3.75214 | 15865 ft | 311 kts | 255° |
| 2026-05-07 19:37 | 37.26757 | -3.77838 | 15737 ft | 311 kts | 255° |
| 2026-05-07 19:38 | 37.26193 | -3.80463 | 15618 ft | 311 kts | 255° |
| 2026-05-07 19:38 | 37.25628 | -3.83088 | 15495 ft | 312 kts | 255° |
| 2026-05-07 19:38 | 37.25064 | -3.85707 | 15372 ft | 312 kts | 255° |
| 2026-05-07 19:38 | 37.24497 | -3.88335 | 15232 ft | 312 kts | 255° |
| 2026-05-07 19:39 | 37.23927 | -3.90975 | 15070 ft | 314 kts | 255° |
| 2026-05-07 19:39 | 37.23355 | -3.93622 | 14887 ft | 315 kts | 255° |
| 2026-05-07 19:39 | 37.22781 | -3.96273 | 14728 ft | 315 kts | 255° |
| 2026-05-07 19:39 | 37.22207 | -3.98921 | 14562 ft | 314 kts | 255° |
| 2026-05-07 19:40 | 37.21634 | -4.01561 | 14390 ft | 313 kts | 255° |
| 2026-05-07 19:40 | 37.21063 | -4.04193 | 14223 ft | 312 kts | 255° |
| 2026-05-07 19:40 | 37.20493 | -4.06814 | 14061 ft | 311 kts | 255° |
| 2026-05-07 19:40 | 37.19925 | -4.09425 | 13877 ft | 310 kts | 254° |
| 2026-05-07 19:41 | 37.19356 | -4.12033 | 13693 ft | 310 kts | 254° |
| 2026-05-07 19:41 | 37.18788 | -4.14638 | 13480 ft | 310 kts | 254° |
| 2026-05-07 19:41 | 37.18218 | -4.17244 | 13271 ft | 310 kts | 254° |
| 2026-05-07 19:41 | 37.17649 | -4.19849 | 13050 ft | 310 kts | 254° |
| 2026-05-07 19:42 | 37.17080 | -4.22445 | 12849 ft | 309 kts | 254° |
| 2026-05-07 19:42 | 37.16511 | -4.25043 | 12646 ft | 309 kts | 254° |
| 2026-05-07 19:42 | 37.15942 | -4.27633 | 12434 ft | 308 kts | 254° |
| 2026-05-07 19:42 | 37.15375 | -4.30217 | 12224 ft | 307 kts | 254° |
| 2026-05-07 19:43 | 37.14808 | -4.32792 | 12023 ft | 306 kts | 254° |
| 2026-05-07 19:43 | 37.14250 | -4.35326 | 11824 ft | 305 kts | 254° |
| 2026-05-07 19:43 | 37.13734 | -4.37904 | 11612 ft | 305 kts | 257° |
| 2026-05-07 19:43 | 37.13294 | -4.40494 | 11429 ft | 303 kts | 258° |
| 2026-05-07 19:44 | 37.12876 | -4.43055 | 11311 ft | 295 kts | 258° |
| 2026-05-07 19:44 | 37.12470 | -4.45536 | 11124 ft | 288 kts | 257° |
| 2026-05-07 19:44 | 37.12064 | -4.47988 | 10791 ft | 287 kts | 257° |
| 2026-05-07 19:44 | 37.11653 | -4.50434 | 10426 ft | 288 kts | 257° |
| 2026-05-07 19:45 | 37.11237 | -4.52891 | 10067 ft | 288 kts | 257° |
| 2026-05-07 19:45 | 37.10819 | -4.55339 | 9789 ft | 286 kts | 257° |
| 2026-05-07 19:45 | 37.10406 | -4.57760 | 9509 ft | 283 kts | 257° |
| 2026-05-07 19:45 | 37.09999 | -4.60141 | 9331 ft | 276 kts | 256° |
| 2026-05-07 19:46 | 37.09598 | -4.62471 | 9093 ft | 272 kts | 256° |
| 2026-05-07 19:46 | 37.09203 | -4.64770 | 8845 ft | 269 kts | 256° |
| 2026-05-07 19:46 | 37.08813 | -4.67044 | 8599 ft | 266 kts | 257° |
| 2026-05-07 19:46 | 37.08425 | -4.69299 | 8335 ft | 264 kts | 257° |
| 2026-05-07 19:47 | 37.08038 | -4.71537 | 8090 ft | 261 kts | 257° |
| 2026-05-07 19:47 | 37.07658 | -4.73735 | 7920 ft | 256 kts | 257° |
| 2026-05-07 19:47 | 37.07283 | -4.75905 | 7653 ft | 255 kts | 257° |
| 2026-05-07 19:47 | 37.06726 | -4.77987 | 7374 ft | 252 kts | 236° |
| 2026-05-07 19:48 | 37.05486 | -4.79446 | 7284 ft | 242 kts | 208° |
| 2026-05-07 19:48 | 37.03924 | -4.80062 | 7207 ft | 232 kts | 186° |
| 2026-05-07 19:48 | 37.02325 | -4.80128 | 7066 ft | 230 kts | 180° |
| 2026-05-07 19:48 | 37.00724 | -4.80095 | 6954 ft | 230 kts | 179° |
| 2026-05-07 19:49 | 36.99138 | -4.80048 | 6783 ft | 227 kts | 179° |
| 2026-05-07 19:49 | 36.97691 | -4.80014 | 6549 ft | 228 kts | 180° |
| 2026-05-07 19:49 | 36.96124 | -4.79988 | 6306 ft | 228 kts | 180° |
| 2026-05-07 19:49 | 36.94539 | -4.79966 | 6060 ft | 228 kts | 180° |
| 2026-05-07 19:50 | 36.92961 | -4.79872 | 5805 ft | 227 kts | 168° |
| 2026-05-07 19:50 | 36.91463 | -4.79247 | 5574 ft | 227 kts | 160° |
| 2026-05-07 19:50 | 36.89986 | -4.78572 | 5321 ft | 226 kts | 161° |
| 2026-05-07 19:50 | 36.88499 | -4.77912 | 5073 ft | 226 kts | 161° |
| 2026-05-07 19:51 | 36.87015 | -4.77256 | 4907 ft | 227 kts | 160° |
| 2026-05-07 19:51 | 36.85603 | -4.76411 | 4734 ft | 221 kts | 152° |
| 2026-05-07 19:51 | 36.84280 | -4.75499 | 4551 ft | 213 kts | 152° |
| 2026-05-07 19:51 | 36.83016 | -4.74628 | 4482 ft | 205 kts | 152° |
| 2026-05-07 19:52 | 36.81769 | -4.73764 | 4327 ft | 208 kts | 152° |
| 2026-05-07 19:52 | 36.80508 | -4.72904 | 4088 ft | 204 kts | 152° |
| 2026-05-07 19:52 | 36.79276 | -4.72069 | 3828 ft | 200 kts | 153° |
| 2026-05-07 19:52 | 36.78074 | -4.71228 | 3573 ft | 197 kts | 145° |
| 2026-05-07 19:53 | 36.77218 | -4.69929 | 3371 ft | 193 kts | 121° |
| 2026-05-07 19:53 | 36.76563 | -4.68483 | 3165 ft | 191 kts | 120° |
| 2026-05-07 19:53 | 36.75933 | -4.67034 | 2931 ft | 189 kts | 119° |
| 2026-05-07 19:53 | 36.75322 | -4.65590 | 2683 ft | 188 kts | 118° |
| 2026-05-07 19:54 | 36.74720 | -4.64157 | 2433 ft | 185 kts | 118° |
| 2026-05-07 19:54 | 36.74122 | -4.62735 | 2187 ft | 184 kts | 118° |
| 2026-05-07 19:54 | 36.73535 | -4.61340 | 1933 ft | 178 kts | 117° |
| 2026-05-07 19:54 | 36.72978 | -4.60014 | 1726 ft | 166 kts | 117° |
| 2026-05-07 19:55 | 36.72457 | -4.58773 | 1487 ft | 158 kts | 117° |
| 2026-05-07 19:55 | 36.71959 | -4.57584 | 1315 ft | 150 kts | 116° |
| 2026-05-07 19:55 | 36.71478 | -4.56440 | 1098 ft | 147 kts | 116° |
| 2026-05-07 19:55 | 36.71009 | -4.55318 | 902 ft | 143 kts | 116° |
| 2026-05-07 19:56 | 36.70552 | -4.54229 | 715 ft | 142 kts | 117° |
| 2026-05-07 19:56 | 36.70083 | -4.53135 | 512 ft | 145 kts | 116° |
| 2026-05-07 19:56 | 36.69628 | -4.52011 | 297 ft | 145 kts | 116° |
| 2026-05-07 19:56 | 36.69158 | -4.50904 | 113 ft | 143 kts | 117° |
| 2026-05-07 19:57 | 36.68720 | -4.49869 | 46 ft | 116 kts | 118° |
| 2026-05-07 19:57 | 36.68450 | -4.49218 | 44 ft | 42 kts | 117° |
| 2026-05-07 19:57 | 36.68346 | -4.49017 | 43 ft | 26 kts | 134° |
| 2026-05-07 19:57 | 36.68222 | -4.48887 | 40 ft | 15 kts | 147° |
| 2026-05-07 19:58 | 36.68140 | -4.48884 | 38 ft | 11 kts | 250° |
| 2026-05-07 19:58 | 36.68159 | -4.48973 | 39 ft | 11 kts | 297° |
| 2026-05-07 19:58 | 36.68194 | -4.49054 | 39 ft | 10 kts | 297° |
| 2026-05-07 19:58 | 36.68227 | -4.49134 | 39 ft | 10 kts | 297° |
| 2026-05-07 19:59 | 36.68260 | -4.49214 | 39 ft | 11 kts | 297° |
| 2026-05-07 19:59 | 36.68290 | -4.49300 | 40 ft | 7 kts | 272° |
| 2026-05-07 19:59 | 36.68254 | -4.49349 | 39 ft | 9 kts | 219° |
| 2026-05-07 19:59 | 36.68205 | -4.49401 | 40 ft | 9 kts | 221° |
| 2026-05-07 20:00 | 36.68158 | -4.49454 | 41 ft | 9 kts | 221° |
| 2026-05-07 20:00 | 36.68105 | -4.49513 | 41 ft | 11 kts | 221° |
| 2026-05-07 20:00 | 36.68041 | -4.49566 | 41 ft | 11 kts | 183° |
| 2026-05-07 20:00 | 36.67983 | -4.49510 | 41 ft | 11 kts | 131° |
| 2026-05-07 20:01 | 36.67939 | -4.49449 | 40 ft | 8 kts | 131° |
| 2026-05-07 20:01 | 36.67896 | -4.49435 | 41 ft | 5 kts | 205° |
| 2026-05-07 20:01 | 36.67871 | -4.49453 | 41 ft | 3 kts | 212° |
| 2026-05-07 20:01 | 36.67868 | -4.49455 | 41 ft | 0 kts | 212° |